createdAt,value
2023-05-21T00:00:56.101Z,73.06
2023-05-21T00:03:41.989Z,73.25
2023-05-21T00:06:09.960Z,73.26
2023-05-21T00:08:38.359Z,73.48
2023-05-21T00:11:06.691Z,73.51
2023-05-21T00:13:34.494Z,73.56
2023-05-21T00:16:02.388Z,73.60
2023-05-21T00:18:32.298Z,73.58
2023-05-21T00:24:15.813Z,73.57
2023-05-21T00:26:44.629Z,73.39
2023-05-21T00:29:12.466Z,73.50
2023-05-21T00:31:41.185Z,73.57
2023-05-21T00:34:09.049Z,74.02
2023-05-21T00:36:36.896Z,74.21
2023-05-21T00:39:05.215Z,74.36
2023-05-21T00:41:35.734Z,74.23
2023-05-21T00:44:03.503Z,74.20
2023-05-21T00:46:31.608Z,74.19
2023-05-21T00:49:01.030Z,74.39
2023-05-21T00:51:30.479Z,74.41
2023-05-21T00:53:59.079Z,74.50
2023-05-21T00:56:27.649Z,74.74
2023-05-21T00:58:57.520Z,75.16
2023-05-21T01:01:34.460Z,75.33
2023-05-21T01:04:03.127Z,75.45
2023-05-21T01:06:34.691Z,75.47
2023-05-21T01:09:05.467Z,75.70
2023-05-21T01:12:00.976Z,76.08
2023-05-21T01:14:31.361Z,76.24
2023-05-21T01:17:02.376Z,76.62
2023-05-21T01:19:32.936Z,76.87
2023-05-21T01:22:05.329Z,77.09
2023-05-21T01:24:33.794Z,77.26
2023-05-21T01:27:03.669Z,77.48
2023-05-21T01:29:31.852Z,77.72
2023-05-21T01:32:11.613Z,77.96
2023-05-21T01:34:54.001Z,78.18
2023-05-21T01:37:30.138Z,78.20
2023-05-21T01:40:06.101Z,78.46
2023-05-21T01:42:37.669Z,78.53
2023-05-21T01:45:08.028Z,78.73
2023-05-21T01:47:37.490Z,78.86
2023-05-21T01:50:06.905Z,79.05
2023-05-21T01:52:35.489Z,79.29
2023-05-21T01:55:06.003Z,79.35
2023-05-21T01:57:33.772Z,79.56
2023-05-21T02:00:03.383Z,79.92
2023-05-21T02:02:31.262Z,80.20
2023-05-21T02:05:00.513Z,80.22
2023-05-21T02:07:29.263Z,80.29
2023-05-21T02:09:57.292Z,80.42
2023-05-21T02:12:26.101Z,80.58
2023-05-21T02:14:54.444Z,80.91
2023-05-21T02:17:24.438Z,81.01
2023-05-21T02:19:52.434Z,81.01
2023-05-21T02:22:20.776Z,81.15
2023-05-21T02:24:49.328Z,81.28
2023-05-21T02:27:17.825Z,81.38
2023-05-21T02:29:46.218Z,81.50
2023-05-21T02:32:13.986Z,81.68
2023-05-21T02:34:43.993Z,81.83
2023-05-21T02:37:12.036Z,81.86
2023-05-21T02:39:39.877Z,82.01
2023-05-21T02:42:07.630Z,82.12
2023-05-21T02:44:35.594Z,82.19
2023-05-21T02:47:03.492Z,82.29
2023-05-21T02:49:31.349Z,82.23
2023-05-21T02:51:59.192Z,82.19
2023-05-21T02:54:27.050Z,82.33
2023-05-21T02:56:54.875Z,82.41
2023-05-21T02:59:22.992Z,82.54
2023-05-21T03:01:50.944Z,82.68
2023-05-21T03:04:21.984Z,82.72
2023-05-21T03:06:55.162Z,82.74
2023-05-21T03:09:23.075Z,82.71
2023-05-21T03:11:51.447Z,82.63
2023-05-21T03:14:19.480Z,82.62
2023-05-21T03:22:22.544Z,83.01
2023-05-21T03:24:50.431Z,82.89
2023-05-21T03:27:18.392Z,82.80
2023-05-21T03:29:46.317Z,82.78
2023-05-21T03:32:14.318Z,82.83
2023-05-21T03:34:42.359Z,82.84
2023-05-21T03:37:10.322Z,82.85
2023-05-21T03:39:38.199Z,82.79
2023-05-21T03:42:06.263Z,82.86
2023-05-21T03:50:56.150Z,82.67
2023-05-21T03:53:24.472Z,82.26
2023-05-21T03:55:55.449Z,81.87
2023-05-21T03:58:23.929Z,81.42
2023-05-21T04:00:51.683Z,81.08
2023-05-21T04:03:19.702Z,80.48
2023-05-21T04:05:47.627Z,79.71
2023-05-21T04:08:16.169Z,79.51
2023-05-21T04:10:44.296Z,79.44
2023-05-21T04:13:12.521Z,79.10
2023-05-21T04:15:40.404Z,78.54
2023-05-21T04:18:11.064Z,78.07
2023-05-21T04:20:50.475Z,77.76
2023-05-21T04:23:21.677Z,77.52
2023-05-21T04:29:05.131Z,75.99
2023-05-21T04:31:33.420Z,75.06
2023-05-21T04:34:01.730Z,74.31
2023-05-21T04:36:30.386Z,74.11
2023-05-21T04:38:58.348Z,73.88
2023-05-21T04:41:26.344Z,73.33
2023-05-21T04:43:55.487Z,72.72
2023-05-21T04:46:26.885Z,72.32
2023-05-21T04:48:58.150Z,71.89
2023-05-21T04:51:26.743Z,71.83
2023-05-21T04:53:54.755Z,70.69
2023-05-21T04:56:22.723Z,69.46
2023-05-21T04:58:56.682Z,69.19
2023-05-21T05:04:48.718Z,66.62
2023-05-21T05:08:50.750Z,67.51
2023-05-21T05:17:57.946Z,63.52
2023-05-21T05:20:25.691Z,63.35
2023-05-21T05:22:53.609Z,62.38
2023-05-21T05:25:21.263Z,62.65
2023-05-21T05:27:48.945Z,61.82
2023-05-21T05:30:16.670Z,61.57
2023-05-21T05:32:44.350Z,60.74
2023-05-21T05:35:12.640Z,61.04
2023-05-21T05:37:40.292Z,60.86
2023-05-21T05:40:08.472Z,59.94
2023-05-21T05:42:36.085Z,59.38
2023-05-21T05:45:04.074Z,59.06
2023-05-21T05:47:32.915Z,58.42
2023-05-21T05:50:00.712Z,57.56
2023-05-21T05:52:30.566Z,55.40
2023-05-21T05:54:58.302Z,52.79
2023-05-21T05:57:25.949Z,49.82
2023-05-21T05:59:54.865Z,49.14
2023-05-21T06:02:49.106Z,48.66
2023-05-21T06:05:17.246Z,45.09
2023-05-21T06:08:47.627Z,46.42
2023-05-21T06:11:17.189Z,45.41
2023-05-21T06:13:44.937Z,43.93
2023-05-21T06:16:13.164Z,43.34
2023-05-21T06:18:42.027Z,42.60
2023-05-21T06:21:08.590Z,42.75
2023-05-21T06:23:37.125Z,41.97
2023-05-21T06:26:04.123Z,41.24
2023-05-21T06:28:30.496Z,41.00
2023-05-21T06:31:01.621Z,41.24
2023-05-21T06:33:40.231Z,40.89
2023-05-21T06:36:33.421Z,40.30
2023-05-21T06:39:01.263Z,39.68
2023-05-21T06:41:29.284Z,38.64
2023-05-21T06:43:57.140Z,36.90
2023-05-21T06:46:25.203Z,38.04
2023-05-21T06:48:55.179Z,39.46
2023-05-21T06:51:23.133Z,39.30
2023-05-21T06:53:51.968Z,38.82
2023-05-21T06:56:22.230Z,38.66
2023-05-21T07:01:33.779Z,39.09
2023-05-21T07:04:02.410Z,38.96
2023-05-21T07:06:37.198Z,38.39
2023-05-21T07:09:06.646Z,36.50
2023-05-21T07:11:37.771Z,36.58
2023-05-21T07:14:09.889Z,36.21
2023-05-21T07:16:40.167Z,36.37
2023-05-21T07:19:09.089Z,36.70
2023-05-21T07:21:38.001Z,35.98
2023-05-21T07:24:10.404Z,36.34
2023-05-21T07:26:40.398Z,35.71
2023-05-21T07:29:19.268Z,35.40
2023-05-21T07:31:47.107Z,35.06
2023-05-21T07:34:15.256Z,35.05
2023-05-21T07:36:43.192Z,34.10
2023-05-21T07:39:11.572Z,34.57
2023-05-21T07:41:39.400Z,34.20
2023-05-21T07:44:08.373Z,32.17
2023-05-21T07:46:37.038Z,33.28
2023-05-21T07:49:04.850Z,33.15
2023-05-21T07:51:33.744Z,32.34
2023-05-21T07:54:05.167Z,33.49
2023-05-21T07:56:33.526Z,32.96
2023-05-21T07:59:02.446Z,32.08
2023-05-21T08:01:31.477Z,32.18
2023-05-21T08:04:18.366Z,31.52
2023-05-21T08:06:55.844Z,31.03
2023-05-21T08:09:26.175Z,30.85
2023-05-21T08:11:57.138Z,30.94
2023-05-21T08:14:25.388Z,30.21
2023-05-21T08:16:53.602Z,29.86
2023-05-21T08:19:21.467Z,29.08
2023-05-21T08:21:51.315Z,29.59
2023-05-21T08:24:21.018Z,29.61
2023-05-21T08:26:50.710Z,29.54
2023-05-21T08:29:18.473Z,29.80
2023-05-21T08:31:46.442Z,30.02
2023-05-21T08:34:14.436Z,30.32
2023-05-21T08:36:43.352Z,29.71
2023-05-21T08:39:11.292Z,29.50
2023-05-21T08:44:38.615Z,28.16
2023-05-21T08:47:10.432Z,27.89
2023-05-21T08:49:39.653Z,29.32
2023-05-21T08:52:08.222Z,29.61
2023-05-21T08:54:37.974Z,29.71
2023-05-21T08:57:22.170Z,30.16
2023-05-21T09:02:51.710Z,27.98
2023-05-21T09:05:20.823Z,28.97
2023-05-21T09:08:07.313Z,29.33
2023-05-21T09:10:41.650Z,28.79
2023-05-21T09:13:10.417Z,29.21
2023-05-21T09:15:39.302Z,28.83
2023-05-21T09:18:07.251Z,30.90
2023-05-21T09:20:35.232Z,30.46
2023-05-21T09:23:05.093Z,29.56
2023-05-21T09:25:33.375Z,29.72
2023-05-21T09:28:01.191Z,29.27
2023-05-21T09:30:31.166Z,29.84
2023-05-21T09:33:00.447Z,29.72
2023-05-21T09:35:28.433Z,28.95
2023-05-21T09:37:57.482Z,29.74
2023-05-21T09:40:25.337Z,29.59
2023-05-21T09:42:55.634Z,28.65
2023-05-21T09:45:29.788Z,29.23
2023-05-21T09:47:57.558Z,29.49
2023-05-21T09:50:27.919Z,31.32
2023-05-21T09:52:56.734Z,30.80
2023-05-21T09:55:26.678Z,30.39
2023-05-21T09:57:54.853Z,29.48
2023-05-21T10:00:25.646Z,29.82
2023-05-21T10:03:09.802Z,27.23
2023-05-21T10:05:39.240Z,27.20
2023-05-21T10:08:09.375Z,27.53
2023-05-21T10:10:39.208Z,26.62
2023-05-21T10:13:10.728Z,27.15
2023-05-21T10:15:43.904Z,26.92
2023-05-21T10:18:13.591Z,27.10
2023-05-21T10:20:41.904Z,26.70
2023-05-21T10:23:10.084Z,28.43
2023-05-21T10:25:38.393Z,28.60
2023-05-21T10:28:07.285Z,27.41
2023-05-21T10:30:37.418Z,26.58
2023-05-21T10:33:06.249Z,24.87
2023-05-21T10:35:35.088Z,25.61
2023-05-21T10:38:05.246Z,27.61
2023-05-21T10:40:36.180Z,29.09
2023-05-21T10:43:27.061Z,28.30
2023-05-21T10:46:39.778Z,26.93
2023-05-21T10:50:04.801Z,26.77
2023-05-21T10:52:34.641Z,26.60
2023-05-21T10:55:06.393Z,25.55
2023-05-21T10:58:24.993Z,27.28
2023-05-21T11:00:55.807Z,27.01
2023-05-21T11:03:26.094Z,25.93
2023-05-21T11:05:58.034Z,27.25
2023-05-21T11:08:28.452Z,28.11
2023-05-21T11:10:58.395Z,27.16
2023-05-21T11:13:50.929Z,27.16
2023-05-21T11:16:21.261Z,26.52
2023-05-21T11:18:56.668Z,25.92
2023-05-21T11:21:38.281Z,26.11
2023-05-21T11:24:07.899Z,25.13
2023-05-21T11:26:48.041Z,24.41
2023-05-21T11:29:18.925Z,24.26
2023-05-21T11:31:48.452Z,23.75
2023-05-21T11:34:32.522Z,22.92
2023-05-21T11:37:20.839Z,23.41
2023-05-21T11:39:51.735Z,22.84
2023-05-21T11:42:38.901Z,24.37
2023-05-21T11:45:07.402Z,24.23
2023-05-21T11:47:35.537Z,24.55
2023-05-21T11:50:04.501Z,24.85
2023-05-21T11:52:33.350Z,24.43
2023-05-21T11:55:01.624Z,23.25
2023-05-21T11:57:33.452Z,23.89
2023-05-21T12:00:16.462Z,23.81
2023-05-21T12:02:52.384Z,24.27
2023-05-21T12:05:24.116Z,23.82
2023-05-21T12:07:52.114Z,22.43
2023-05-21T12:10:24.426Z,22.20
2023-05-21T12:13:18.777Z,22.24
2023-05-21T12:16:26.915Z,20.27
2023-05-21T12:19:10.906Z,20.98
2023-05-21T12:21:40.437Z,21.88
2023-05-21T12:24:12.796Z,23.05
2023-05-21T12:26:42.197Z,22.75
2023-05-21T12:29:11.303Z,22.73
2023-05-21T12:31:49.746Z,22.04
2023-05-21T12:34:38.779Z,21.55
2023-05-21T12:37:11.419Z,20.82
2023-05-21T12:39:54.287Z,21.18
2023-05-21T12:42:31.453Z,21.65
2023-05-21T12:45:10.588Z,22.10
2023-05-21T12:47:40.234Z,23.08
2023-05-21T12:50:13.812Z,24.13
2023-05-21T12:52:47.931Z,24.87
2023-05-21T12:55:26.243Z,24.84
2023-05-21T12:58:08.027Z,24.26
2023-05-21T13:00:42.254Z,23.52
2023-05-21T13:03:26.927Z,23.30
2023-05-21T13:06:03.663Z,24.75
2023-05-21T13:08:35.855Z,25.95
2023-05-21T13:11:07.190Z,25.73
2023-05-21T13:13:35.223Z,26.04
2023-05-21T13:16:18.079Z,25.03
2023-05-21T13:18:50.815Z,25.24
2023-05-21T13:21:18.626Z,24.40
2023-05-21T13:23:46.812Z,25.43
2023-05-21T13:26:14.629Z,26.12
2023-05-21T13:28:42.941Z,25.80
2023-05-21T13:31:14.249Z,26.21
2023-05-21T13:33:42.688Z,25.95
2023-05-21T13:36:11.117Z,24.62
2023-05-21T13:38:38.780Z,24.05
2023-05-21T13:41:07.047Z,23.91
2023-05-21T13:43:35.607Z,24.07
2023-05-21T13:46:03.904Z,23.40
2023-05-21T13:48:31.985Z,22.49
2023-05-21T13:51:01.877Z,22.56
2023-05-21T13:53:30.051Z,22.22
2023-05-21T13:55:57.983Z,22.42
2023-05-21T13:58:28.119Z,23.59
2023-05-21T14:00:57.858Z,23.76
2023-05-21T14:03:27.557Z,23.65
2023-05-21T14:05:55.903Z,23.56
2023-05-21T14:08:24.927Z,23.37
2023-05-21T14:10:55.402Z,23.14
2023-05-21T14:13:23.119Z,22.17
2023-05-21T14:15:56.197Z,22.07
2023-05-21T14:18:30.617Z,22.49
2023-05-21T14:21:01.331Z,23.74
2023-05-21T14:23:29.723Z,24.70
2023-05-21T14:25:58.737Z,24.04
2023-05-21T14:28:30.661Z,24.99
2023-05-21T14:31:00.901Z,24.94
2023-05-21T14:33:32.192Z,24.03
2023-05-21T14:38:57.709Z,22.32
2023-05-21T14:41:40.695Z,22.37
2023-05-21T14:44:09.667Z,22.36
2023-05-21T14:46:39.604Z,21.22
2023-05-21T14:49:07.856Z,20.87
2023-05-21T14:51:35.655Z,20.40
2023-05-21T14:54:03.559Z,20.43
2023-05-21T14:56:31.259Z,21.49
2023-05-21T14:58:58.957Z,21.03
2023-05-21T15:01:26.882Z,21.07
2023-05-21T15:03:58.720Z,21.25
2023-05-21T15:06:26.532Z,20.58
2023-05-21T15:08:54.550Z,21.51
2023-05-21T15:11:22.426Z,22.01
2023-05-21T15:13:50.432Z,21.78
2023-05-21T15:16:19.724Z,21.37
2023-05-21T15:18:48.007Z,21.83
2023-05-21T15:21:16.007Z,22.28
2023-05-21T15:23:43.930Z,21.05
2023-05-21T15:26:11.630Z,20.10
2023-05-21T15:28:39.527Z,19.67
2023-05-21T15:31:07.336Z,19.68
2023-05-21T15:33:35.391Z,19.28
2023-05-21T15:36:03.303Z,19.43
2023-05-21T15:38:31.249Z,19.64
2023-05-21T15:40:59.056Z,20.44
2023-05-21T15:43:27.272Z,20.21
2023-05-21T15:45:55.061Z,19.49
2023-05-21T15:48:23.029Z,19.15
2023-05-21T15:50:50.828Z,19.07
2023-05-21T15:53:19.045Z,20.26
2023-05-21T15:55:46.786Z,22.57
2023-05-21T15:58:14.661Z,24.20
2023-05-21T16:00:42.489Z,25.16
2023-05-21T16:03:12.016Z,26.27
2023-05-21T16:05:39.828Z,27.04
2023-05-21T16:08:10.654Z,28.19
2023-05-21T16:10:40.148Z,29.63
2023-05-21T16:13:07.911Z,29.88
2023-05-21T16:15:36.152Z,30.33
2023-05-21T16:18:04.624Z,30.91
2023-05-21T16:20:33.583Z,31.25
2023-05-21T16:23:03.795Z,31.98
2023-05-21T16:25:31.717Z,32.39
2023-05-21T16:27:59.469Z,33.23
2023-05-21T16:30:29.702Z,33.57
2023-05-21T16:32:57.503Z,33.33
2023-05-21T16:35:25.998Z,33.68
2023-05-21T16:37:55.204Z,33.55
2023-05-21T16:40:23.225Z,34.22
2023-05-21T16:42:52.926Z,33.94
2023-05-21T16:45:21.542Z,35.41
2023-05-21T16:47:54.220Z,35.28
2023-05-21T16:50:23.040Z,36.14
2023-05-21T16:52:51.098Z,35.71
2023-05-21T16:55:18.804Z,35.83
2023-05-21T16:57:46.486Z,35.62
2023-05-21T17:00:14.600Z,35.59
2023-05-21T17:02:42.485Z,35.70
2023-05-21T17:05:10.358Z,35.86
2023-05-21T17:07:51.618Z,36.02
2023-05-21T17:10:19.993Z,36.61
2023-05-21T17:12:47.926Z,36.19
2023-05-21T17:15:15.769Z,36.32
2023-05-21T17:17:46.865Z,36.36
2023-05-21T17:23:43.349Z,36.63
2023-05-21T17:26:11.180Z,36.43
2023-05-21T17:28:38.884Z,36.48
2023-05-21T17:31:08.961Z,36.85
2023-05-21T17:33:37.629Z,37.06
2023-05-21T17:36:06.897Z,37.08
2023-05-21T17:38:34.620Z,37.09
2023-05-21T17:41:05.662Z,36.98
2023-05-21T17:43:33.725Z,37.48
2023-05-21T17:46:01.541Z,37.81
2023-05-21T17:48:29.423Z,37.85
2023-05-21T17:50:57.443Z,38.43
2023-05-21T17:53:26.037Z,38.95
2023-05-21T17:55:53.855Z,39.56
2023-05-21T17:58:21.589Z,39.61
2023-05-21T18:01:09.998Z,39.75
2023-05-21T18:04:04.999Z,40.32
2023-05-21T18:06:32.867Z,41.67
2023-05-21T18:09:54.318Z,42.49
2023-05-21T18:12:37.993Z,43.69
2023-05-21T18:15:06.595Z,43.65
2023-05-21T18:17:34.559Z,44.13
2023-05-21T18:20:04.333Z,42.60
2023-05-21T18:22:32.600Z,43.53
2023-05-21T18:25:11.743Z,45.22
2023-05-21T18:28:04.274Z,45.59
2023-05-21T18:31:00.528Z,45.72
2023-05-21T18:33:33.746Z,45.79
2023-05-21T18:36:01.581Z,46.38
2023-05-21T18:38:29.691Z,46.96
2023-05-21T18:40:57.454Z,47.10
2023-05-21T18:43:25.925Z,47.31
2023-05-21T18:45:55.529Z,47.35
2023-05-21T18:48:24.107Z,47.75
2023-05-21T18:50:56.899Z,48.21
2023-05-21T18:53:25.421Z,48.63
2023-05-21T18:55:53.264Z,49.01
2023-05-21T18:58:21.719Z,49.40
2023-05-21T19:00:49.727Z,49.56
2023-05-21T19:03:17.694Z,49.97
2023-05-21T19:05:45.607Z,50.62
2023-05-21T19:08:13.580Z,50.72
2023-05-21T19:10:41.667Z,51.16
2023-05-21T19:13:09.720Z,51.54
2023-05-21T19:15:37.758Z,51.81
2023-05-21T19:18:05.693Z,52.84
2023-05-21T19:20:33.560Z,53.24
2023-05-21T19:23:02.063Z,53.05
2023-05-21T19:25:31.502Z,53.40
2023-05-21T19:28:00.788Z,53.78
2023-05-21T19:30:28.452Z,54.17
2023-05-21T19:33:00.806Z,54.66
2023-05-21T19:35:28.778Z,55.26
2023-05-21T19:38:00.629Z,55.77
2023-05-21T19:40:30.362Z,55.93
2023-05-21T19:42:58.049Z,55.92
2023-05-21T19:45:26.674Z,56.01
2023-05-21T19:47:54.503Z,55.95
2023-05-21T19:50:22.230Z,56.21
2023-05-21T19:52:49.880Z,56.71
2023-05-21T19:55:20.062Z,56.85
2023-05-21T19:57:47.798Z,57.01
2023-05-21T20:00:16.973Z,57.30
2023-05-21T20:02:44.940Z,57.63
2023-05-21T20:05:12.908Z,58.05
2023-05-21T20:07:41.513Z,58.51
2023-05-21T20:10:09.356Z,58.73
2023-05-21T20:12:37.857Z,58.80
2023-05-21T20:15:06.919Z,59.39
2023-05-21T20:17:36.219Z,59.75
2023-05-21T20:20:09.946Z,60.21
2023-05-21T20:22:37.712Z,60.76
2023-05-21T20:25:07.589Z,61.05
2023-05-21T20:27:36.092Z,61.51
2023-05-21T20:30:07.281Z,61.67
2023-05-21T20:32:35.036Z,61.94
2023-05-21T20:35:03.956Z,62.27
2023-05-21T20:37:34.795Z,62.30
2023-05-21T20:40:02.474Z,62.45
2023-05-21T20:42:34.811Z,63.05
2023-05-21T20:45:04.191Z,63.11
2023-05-21T20:47:32.072Z,63.47
2023-05-21T20:50:02.763Z,63.82
2023-05-21T20:52:32.120Z,63.81
2023-05-21T20:54:59.939Z,64.25
2023-05-21T20:57:28.389Z,64.67
2023-05-21T20:59:56.712Z,64.96
2023-05-21T21:02:24.513Z,64.94
2023-05-21T21:04:53.916Z,65.03
2023-05-21T21:07:21.890Z,65.37
2023-05-21T21:09:49.592Z,65.74
2023-05-21T21:14:48.409Z,66.17
2023-05-21T21:17:16.235Z,66.43
2023-05-21T21:19:44.051Z,66.71
2023-05-21T21:22:11.846Z,66.75
2023-05-21T21:24:39.620Z,66.69
2023-05-21T21:27:07.451Z,66.74
2023-05-21T21:29:35.136Z,66.91
2023-05-21T21:32:02.851Z,67.00
2023-05-21T21:34:30.535Z,67.44
2023-05-21T21:36:58.194Z,67.77
2023-05-21T21:39:26.830Z,68.12
2023-05-21T21:41:54.796Z,68.36
2023-05-21T21:44:22.528Z,68.64
2023-05-21T21:46:50.378Z,68.88
2023-05-21T21:49:18.227Z,69.09
2023-05-21T21:51:46.219Z,69.21
2023-05-21T21:54:13.976Z,69.12
2023-05-21T21:56:41.725Z,69.31
2023-05-21T21:59:09.410Z,69.40
2023-05-21T22:01:37.403Z,69.48
2023-05-21T22:04:05.551Z,69.34
2023-05-21T22:06:33.327Z,69.70
2023-05-21T22:09:01.632Z,69.49
2023-05-21T22:11:29.398Z,69.50
2023-05-21T22:13:57.351Z,69.48
2023-05-21T22:16:25.154Z,69.22
2023-05-21T22:18:54.221Z,69.15
2023-05-21T22:21:27.075Z,69.42
2023-05-21T22:23:56.135Z,69.60
2023-05-21T22:26:23.852Z,69.76
2023-05-21T22:28:51.696Z,69.78
2023-05-21T22:31:19.476Z,69.87
2023-05-21T22:33:47.417Z,69.83
2023-05-21T22:36:15.100Z,69.74
2023-05-21T22:38:43.909Z,69.42
2023-05-21T22:41:11.722Z,69.52
2023-05-21T22:43:39.468Z,69.36
2023-05-21T22:46:08.125Z,69.31
2023-05-21T22:48:37.307Z,69.55
2023-05-21T22:51:05.741Z,69.73
2023-05-21T22:53:33.563Z,69.38
2023-05-21T22:56:01.342Z,69.11
2023-05-21T22:58:31.732Z,69.33
2023-05-21T23:00:59.547Z,69.57
2023-05-21T23:03:27.299Z,69.70
2023-05-21T23:05:55.022Z,70.09
2023-05-21T23:08:52.002Z,70.08
2023-05-21T23:11:19.740Z,70.54
2023-05-21T23:13:47.383Z,70.31
2023-05-21T23:16:15.064Z,70.63
2023-05-21T23:18:43.796Z,70.68
2023-05-21T23:21:11.574Z,70.83
2023-05-21T23:23:39.293Z,70.87
2023-05-21T23:26:07.136Z,71.07
2023-05-21T23:28:37.473Z,71.21
2023-05-21T23:31:06.179Z,71.42
2023-05-21T23:33:35.004Z,71.73
2023-05-21T23:36:03.078Z,72.09
2023-05-21T23:38:30.892Z,72.19
2023-05-21T23:40:58.951Z,72.46
2023-05-21T23:43:26.823Z,72.72
2023-05-21T23:45:55.033Z,73.01
2023-05-21T23:48:24.605Z,73.19
2023-05-21T23:50:52.613Z,73.37
2023-05-21T23:53:20.371Z,73.22
